Terminal Aerodrome Forecast
Issued by NWS Cleveland, OH

Home | Current Version | Previous Version | Text Only | Print | Product List | Glossary Off
Versions: 1 2 3 4 5 6 7 8 9 10 11 12 13 14 15 16 17 18 19

000
FTUS41 KCLE 202121 AAB
TAFTOL
TAF AMD
KTOL 202121Z 2021/2118 18012G20KT 5SM -SHRA SCT025 OVC040
      TEMPO 2021/2023 3/4SM TSRA BKN025CB OVC040
     FM202300 21012KT P6SM SCT025 OVC040
      TEMPO 2100/2104 VRB20G35KT 2SM -TSRA BKN015CB OVC035
     FM210400 24010KT P6SM BKN025 OVC035
     FM211500 28012G20KT P6SM BKN040=

USA.gov is the U.S. government's official web portal to all federal, state and local government web resources and services.